Logo AVAMET
Benvolgut visitant, si us plau, ingressa Recuperar contrasenya

Inforatge Altea poble

Dades diàries. Acumulats / Últims 30 dies disponibles

Data Temperatura (°C) Humitat rel. (%) Pressió rel. (hPa) Vent (km/h) Precipitació
Mínima Mitjana Màxima Amplitud
tèrmica
Mínima Mitjana Màxima Mínima Mitjana Màxima Predom. Mitjana Ràfega
màxima
Total
(mm)
Índex-n
Mínima Mitjana Màxima Mínima Mitjana Màxima n
0 a 1
P0 max
mm 5'
Dades mensuals acumulades fins l'últim dia disponible
11/2019 8,5 14,0 21,3 17,3 16,6 20,9 27,8 19,3 24 51 88 1.003 1.013 1.023   6,2 48,3 3,2
Dades anuals acumulades fins l'últim dia disponible
2019 4,9 15,4 27,3 19,2 12,3 23,1 36,2 31,3 19 67 97 997 1.019 1.037   5,5 69,3 367,0
Últims 30 dies disponibles
17-11-2019 8,5     14,1     18,4 9,9 39 49 84 1.012 1.015 1.017 WNW 4,0 29,0 1,8 0,20
16-11-2019 9,4     12,7     16,6 7,2 40 51 70 1.009 1.013 1.018 NW 7,9 32,2 0,0
15-11-2019 10,9     13,3     17,3 6,4 36 47 57 1.004 1.006 1.009 WNW 5,3 27,4 0,0
14-11-2019 12,0     15,0     17,9 5,9 41 65 88 1.003 1.006 1.014 WNW 3,2 38,6 0,0
13-11-2019 12,8     16,1     21,8 9,0 44 68 85 1.009 1.011 1.015 WNW 4,2 35,4 1,4
12-11-2019 12,7     15,3     19,2 6,5 31 45 63 1.012 1.014 1.015 NNW 8,0 33,8 0,0
11-11-2019 10,8     14,5     17,8 7,0 30 45 55 1.013 1.015 1.017 NNW 5,6 32,2 0,0
10-11-2019 11,8     15,1     17,6 5,8 35 47 69 1.013 1.014 1.016 NW 10,1 48,3 0,0
09-11-2019 13,7     16,7     20,4 6,7 28 39 63 1.016 1.019 1.022 WNW 7,9 37,0 0,0
08-11-2019 12,7     15,5     18,2 5,5 32 40 52 1.012 1.015 1.019 WNW 9,8 38,6 0,0
07-11-2019 12,4     17,2     21,8 9,4 24 53 75 1.010 1.013 1.016 WNW 4,3 27,4 0,0
06-11-2019 15,2     17,7     21,2 6,0 34 47 61 1.014 1.015 1.016 WNW 9,8 45,1 0,0
05-11-2019 17,2     19,2     21,2 4,0 36 46 58 1.010 1.012 1.015 WNW 8,2 46,7 0,0
04-11-2019 18,7     21,9     25,6 6,9 47 56 79 1.010 1.012 1.015 WNW 4,7 27,4 0,0
03-11-2019 19,7     22,2     25,6 5,9 41 52 65 1.006 1.008 1.013 WNW 5,3 35,4 0,0
02-11-2019 21,3     24,3     27,8 6,5 39 52 61 1.008 1.012 1.016 WNW 4,0 32,2 0,0
01-11-2019 18,2     22,8     26,7 8,5 57 68 77 1.016 1.020 1.023 WNW 3,5 30,6 0,0
31-10-2019 18,3     23,1     27,6 9,3 44 63 88 1.021 1.022 1.023 OSO 4,7 27,4 0,0
30-10-2019 16,0     19,3     22,8 6,8 77 83 92 1.022 1.023 1.024 WNW 5,3 17,7 0,0
29-10-2019 14,9     18,4     22,5 7,6 72 81 89 1.018 1.019 1.022 WNW 4,3 12,9 0,0
28-10-2019 14,2     17,8     22,7 8,5 67 82 89 1.019 1.021 1.023 WNW 4,3 19,3 0,0
27-10-2019 13,9     17,8     22,0 8,1 66 80 91 1.023 1.024 1.025 WNW 4,8 14,5 0,0
26-10-2019 13,7     17,9     22,2 8,5 67 76 91 1.023 1.024 1.025 WNW 5,5 16,1 0,0
25-10-2019 14,6     18,6     23,4 8,8 49 64 77 1.024 1.024 1.026 WNW 4,5 17,7 0,0
24-10-2019 11,2     16,4     21,6 10,4 49 65 80 1.014 1.018 1.024 WNW 4,5 22,5 0,0
23-10-2019 10,8     14,6     19,9 9,1 53 75 90 1.009 1.011 1.014 WNW 3,5 24,1 2,8 0,15 1,00
22-10-2019 13,7     15,6     17,4 3,7 68 83 94 1.008 1.012 1.020 WNW 6,3 67,6 51,0 0,31 2,20
21-10-2019 14,6     17,0     18,5 3,9 45 72 91 1.018 1.019 1.021 WNW 4,7 32,2 30,4 0,78 11,80
20-10-2019 17,2     20,3     26,4 9,2 36 68 90 1.009 1.012 1.018 WNW 3,7 25,7 0,0
19-10-2019 15,8     20,6     25,6 9,8 57 69 87 1.010 1.013 1.016 WNW 4,2 19,3 0,0
Últims 13 mesos disponibles
10/2019 10,8 16,4 19,7 20,4 17,4 24,7 29,1 18,3 47 72 83 1.011 1.019 1.024 WNW 5,1 67,6 92,6
09/2019 15,4 20,3 24,2 24,1 24,1 27,8 32,3 16,9 62 76 86 1.013 1.020 1.025 SSO 5,7 56,3 97,4
08/2019 19,9 22,8 24,9 26,5 27,7 30,2 36,2 16,3 62 73 83 1.013 1.018 1.022 SSO 5,7 33,9 26,4
07/2019 20,9 23,1 27,3 26,7 27,8 30,2 34,3 13,4 45 67 82 1.008 1.016 1.023 S 5,6 37,0 1,6
06/2019 15,1 18,6 26,6 22,5 22,6 26,6 33,8 18,7 46 68 82 1.011 1.018 1.025 S 5,5 35,4 0,6
05/2019 10,8 14,8 19,2 18,6 18,7 22,4 28,2 17,4 54 70 84 1.008 1.018 1.028 SSO 5,5 50,0 9,6
04/2019 9,8 12,3 16,4 15,7 16,1 19,3 26,1 16,3 47 70 87 1.002 1.015 1.028 S 5,7 68,5 99,8
03/2019 7,9 10,0 12,6 14,2 14,4 18,4 21,9 14,0 48 64 83 1.015 1.025 1.033 SSO 5,3 51,9 28,2
02/2019 6,3 8,1 12,7 12,4 13,4 16,8 20,1 13,8 31 63 78 999 1.027 1.036 SO 5,5 69,3 0,2
01/2019 4,9 8,2 13,4 11,9 12,3 16,3 21,8 16,9 37 61 80 1.006 1.021 1.033 OSO 5,3 58,0 7,4
12/2018 7,1 9,5 12,2 13,3 14,9 18,0 21,5 14,4 54 72 84 1.012 1.027 1.034 SO 4,4 38,9 18,6
11/2018 7,3 12,4 17,0 15,7 15,7 19,7 23,5 16,2 50 68 86 1.002 1.018 1.024 OSO 4,5 48,3 86,6
10/2018 10,2 16,1 19,3 19,6 16,9 23,8 27,1 16,9 39 69 80 1.001 1.017 1.028 SO 4,9 51,9 73,4
Tots els anys disponibles
Temperatura (°C)
Humitat relativa (%)
Velocitat del vent i ràfega màxima (km/h)
Direcció del vent (°)
Pressió (hPa)
Precipitació (mm)
Nota sobre les dades: s'avisa a l'usuari de la provisionalitat i no oficialitat d'aquestes dades
Logo AVAMET blanc
Web allotjada a Sollutia
Llicència de Creative CommonsLa web d'AVAMET i els seus continguts estan subjectes a una llicència de
Reconeixement - No Comercial - Compartir igual
Últimes estacions: Xàbia - Alt de la Granadella (Soci), Villena - Sierra de Salinas (Soci), Sueca - Centre (Inforatge), Xàbia - La Plana (Soci), Banyeres de Mariola - Molí Sol (Soci), Villena - Villa Ventín (Soci), Benissa - Convent (Soci), - - -